Terminal Aerodrome Forecast
Issued by NWS Raleigh/Durham, NC

Home | Current Version | Previous Version | Text Only | Print | Product List | Glossary On
Versions: 1 2 3 4 5 6 7 8 9 10 11 12 13 14 15 16 17 18 19 20 21 22 23 24 25 26 27 28 29 30 31 32 33 34 35 36
000
FTUS42 KRAH 270218 AAB
TAFFAY
TAF AMD
KFAY 270218Z 2702/2724 16010KT P6SM FEW020 BKN250
     FM270900 17004KT 4SM BR SCT009 BKN060
      TEMPO 2711/2713 BKN009
     FM271330 22006KT P6SM BKN020
     FM271500 22008KT P6SM BKN040
     FM271900 17011KT P6SM VCSH BKN040=

USA.gov is the U.S. government's official web portal to all federal, state and local government web resources and services.